Time;durP1;ratioP1;P1;durP2;ratioP2;P2;SDS_P1;SDS_P2;PMS_P1;PMS_P2;Temp;Humidity;BMP_temperature;BMP_pressure;BME280_temperature;BME280_humidity;BME280_pressure;Samples;Min_cycle;Max_cycle;Signal;HPM_P1;HPM_P2
2022/06/11 00:01:47;;;;;;;6.83;1.47;;;;;;;;;;5055760;28;20259;-43
2022/06/11 00:04:15;;;;;;;5.17;1.60;;;;;;;;;;5059089;28;20763;-42
2022/06/11 00:06:43;;;;;;;3.40;1.60;;;;;;;;;;5057468;28;20628;-42
2022/06/11 00:09:10;;;;;;;3.03;1.50;;;;;;;;;;5054803;28;20225;-42
2022/06/11 00:11:36;;;;;;;2.20;1.57;;;;;;;;;;5059403;28;20951;-42
2022/06/11 00:14:03;;;;;;;3.73;1.43;;;;;;;;;;5055320;28;20717;-42
2022/06/11 00:16:29;;;;;;;1.93;1.17;;;;;;;;;;5056228;28;20186;-43
2022/06/11 00:18:56;;;;;;;1.83;1.20;;;;;;;;;;5060799;28;20189;-43
2022/06/11 00:21:24;;;;;;;2.90;1.30;;;;;;;;;;5054363;28;20187;-43
2022/06/11 00:23:50;;;;;;;1.97;1.40;;;;;;;;;;5053213;28;20874;-43
2022/06/11 00:26:16;;;;;;;2.80;1.20;;;;;;;;;;5056891;28;20541;-43
2022/06/11 00:28:42;;;;;;;2.07;1.30;;;;;;;;;;5057947;28;20235;-41
2022/06/11 00:31:10;;;;;;;2.93;1.40;;;;;;;;;;5052008;28;20318;-43
2022/06/11 00:33:36;;;;;;;4.17;1.43;;;;;;;;;;5056520;28;20275;-43
2022/06/11 00:36:03;;;;;;;2.20;1.40;;;;;;;;;;5055436;28;20273;-43
2022/06/11 00:38:29;;;;;;;6.07;1.67;;;;;;;;;;5055410;28;20752;-43
2022/06/11 00:40:55;;;;;;;2.73;1.30;;;;;;;;;;5052709;28;20178;-43
2022/06/11 00:43:23;;;;;;;3.13;1.60;;;;;;;;;;5054017;28;20427;-43
2022/06/11 00:45:58;;;;;;;5.70;1.90;;;;;;;;;;5047972;28;20175;-43
2022/06/11 00:48:39;;;;;;;6.70;1.70;;;;;;;;;;5052114;28;20207;-43
2022/06/11 00:51:13;;;;;;;2.70;1.50;;;;;;;;;;5050358;28;20730;-43
2022/06/11 00:53:42;;;;;;;7.50;2.07;;;;;;;;;;5049417;28;20622;-44
2022/06/11 00:56:12;;;;;;;5.57;1.80;;;;;;;;;;5046051;28;20208;-43
2022/06/11 00:58:39;;;;;;;6.17;1.93;;;;;;;;;;5054156;28;20624;-43
2022/06/11 01:01:06;;;;;;;5.30;1.87;;;;;;;;;;5049978;28;20813;-43
2022/06/11 01:03:35;;;;;;;10.20;2.60;;;;;;;;;;5040670;28;20900;-43
2022/06/11 01:06:04;;;;;;;8.60;2.60;;;;;;;;;;5048104;28;20454;-43
2022/06/11 01:08:30;;;;;;;11.77;2.43;;;;;;;;;;5041665;28;20243;-43
2022/06/11 01:11:15;;;;;;;10.13;2.60;;;;;;;;;;5045847;28;20298;-43
2022/06/11 01:13:41;;;;;;;6.60;2.53;;;;;;;;;;5043560;28;20790;-43
2022/06/11 01:16:14;;;;;;;7.67;2.27;;;;;;;;;;5050777;28;20301;-43
2022/06/11 01:18:55;;;;;;;12.50;2.77;;;;;;;;;;5048988;28;20209;-43
2022/06/11 01:21:21;;;;;;;8.03;2.37;;;;;;;;;;5053296;28;20174;-44
2022/06/11 01:23:53;;;;;;;6.97;2.60;;;;;;;;;;5051874;28;20210;-44
2022/06/11 01:26:38;;;;;;;11.27;2.60;;;;;;;;;;5050104;28;20182;-44
2022/06/11 01:29:23;;;;;;;11.37;2.57;;;;;;;;;;5057331;28;20198;-44
2022/06/11 01:31:58;;;;;;;11.80;2.90;;;;;;;;;;5044976;28;20179;-44
2022/06/11 01:34:30;;;;;;;12.47;3.27;;;;;;;;;;5044373;28;20285;-44
2022/06/11 01:37:01;;;;;;;11.23;2.63;;;;;;;;;;5048393;28;20511;-44
2022/06/11 01:39:33;;;;;;;8.27;2.37;;;;;;;;;;5046419;28;20283;-44
2022/06/11 01:42:05;;;;;;;9.60;2.50;;;;;;;;;;5042781;28;21436;-44
2022/06/11 01:44:33;;;;;;;8.00;2.27;;;;;;;;;;5047995;28;20210;-44
2022/06/11 01:46:59;;;;;;;9.57;2.33;;;;;;;;;;5045733;28;20269;-44
2022/06/11 01:49:26;;;;;;;9.53;2.00;;;;;;;;;;5050716;28;20832;-44
2022/06/11 01:52:10;;;;;;;7.57;2.00;;;;;;;;;;5050238;28;20175;-44
2022/06/11 01:54:36;;;;;;;10.37;2.30;;;;;;;;;;5047660;28;20759;-44
2022/06/11 01:57:08;;;;;;;4.07;1.90;;;;;;;;;;5047727;28;20934;-43
2022/06/11 01:59:44;;;;;;;4.03;1.70;;;;;;;;;;5042416;28;20259;-43
2022/06/11 02:02:29;;;;;;;5.07;1.80;;;;;;;;;;5043946;28;22435;-44
2022/06/11 02:05:13;;;;;;;5.77;1.80;;;;;;;;;;5043866;28;20182;-44
2022/06/11 02:07:41;;;;;;;2.80;1.53;;;;;;;;;;5049970;28;20174;-43
2022/06/11 02:10:20;;;;;;;1.50;1.20;;;;;;;;;;5048900;28;20253;-43
2022/06/11 02:12:46;;;;;;;3.90;1.53;;;;;;;;;;5048892;28;20167;-43
2022/06/11 02:15:23;;;;;;;3.90;1.40;;;;;;;;;;5051335;28;20190;-42
2022/06/11 02:17:50;;;;;;;2.03;1.43;;;;;;;;;;5048579;28;20289;-43
2022/06/11 02:20:23;;;;;;;2.53;1.60;;;;;;;;;;5051003;28;20162;-43
2022/06/11 02:22:52;;;;;;;4.10;1.77;;;;;;;;;;5048672;28;20213;-43
2022/06/11 02:25:41;;;;;;;5.10;1.80;;;;;;;;;;5050149;28;20175;-43
2022/06/11 02:28:11;;;;;;;7.83;1.73;;;;;;;;;;5042427;28;20552;-43
2022/06/11 02:30:38;;;;;;;3.07;1.73;;;;;;;;;;5065570;27;20206;-43
2022/06/11 02:33:04;;;;;;;3.30;1.90;;;;;;;;;;5049383;28;20404;-43
2022/06/11 02:35:36;;;;;;;3.77;1.87;;;;;;;;;;5055725;28;20170;-43
2022/06/11 02:38:04;;;;;;;3.30;1.67;;;;;;;;;;5051364;28;20607;-43
2022/06/11 02:40:31;;;;;;;3.23;1.77;;;;;;;;;;5046585;28;20283;-43
2022/06/11 02:42:57;;;;;;;2.73;1.77;;;;;;;;;;5049707;28;20175;-43
2022/06/11 02:45:24;;;;;;;4.87;1.73;;;;;;;;;;5056019;28;20261;-43
2022/06/11 02:47:51;;;;;;;3.40;1.80;;;;;;;;;;5049837;28;20185;-43
2022/06/11 02:50:26;;;;;;;3.40;1.93;;;;;;;;;;5049263;28;20241;-43
2022/06/11 02:52:54;;;;;;;2.30;1.60;;;;;;;;;;5051098;28;20304;-43
2022/06/11 02:55:20;;;;;;;2.40;1.60;;;;;;;;;;5050301;28;21044;-42
2022/06/11 02:57:47;;;;;;;2.13;1.60;;;;;;;;;;5047790;28;20206;-42
2022/06/11 03:00:15;;;;;;;3.87;1.67;;;;;;;;;;5048916;28;21221;-42
2022/06/11 03:02:45;;;;;;;2.63;1.73;;;;;;;;;;5049113;28;20990;-42
2022/06/11 03:05:11;;;;;;;4.70;1.87;;;;;;;;;;5047270;28;20651;-43
2022/06/11 03:07:38;;;;;;;3.80;1.90;;;;;;;;;;5045974;28;20170;-43
2022/06/11 03:10:04;;;;;;;3.13;1.87;;;;;;;;;;5046210;28;20201;-42
2022/06/11 03:12:30;;;;;;;4.27;2.03;;;;;;;;;;5045911;28;20466;-43
2022/06/11 03:14:56;;;;;;;5.00;2.17;;;;;;;;;;5038170;28;21525;-43
2022/06/11 03:17:23;;;;;;;3.87;2.10;;;;;;;;;;5042714;28;20628;-44
2022/06/11 03:19:50;;;;;;;5.07;2.17;;;;;;;;;;5048899;28;20178;-44
2022/06/11 03:22:17;;;;;;;4.60;2.43;;;;;;;;;;5046334;28;20205;-44
2022/06/11 03:24:43;;;;;;;7.10;2.83;;;;;;;;;;5051360;28;20518;-44
2022/06/11 03:27:10;;;;;;;12.17;2.90;;;;;;;;;;5051805;28;20560;-44
2022/06/11 03:29:36;;;;;;;8.23;2.53;;;;;;;;;;5048548;28;20199;-43
2022/06/11 03:32:03;;;;;;;2.63;1.93;;;;;;;;;;5047909;28;20170;-43
2022/06/11 03:34:29;;;;;;;4.67;2.40;;;;;;;;;;5054656;28;20175;-44
2022/06/11 03:36:57;;;;;;;5.73;2.70;;;;;;;;;;5056236;28;20170;-44
2022/06/11 03:39:23;;;;;;;6.07;2.43;;;;;;;;;;5057473;28;20820;-43
2022/06/11 03:41:50;;;;;;;5.90;2.40;;;;;;;;;;5051529;28;20826;-43
2022/06/11 03:44:17;;;;;;;5.20;2.77;;;;;;;;;;5049993;28;20866;-44
2022/06/11 03:46:43;;;;;;;4.57;2.43;;;;;;;;;;5056181;28;20606;-43
2022/06/11 03:49:10;;;;;;;6.53;2.67;;;;;;;;;;5055775;28;20265;-44
2022/06/11 03:51:36;;;;;;;5.63;2.63;;;;;;;;;;5047753;28;20202;-43
2022/06/11 03:54:02;;;;;;;5.50;2.13;;;;;;;;;;5054974;28;20171;-43
2022/06/11 03:56:28;;;;;;;8.57;2.40;;;;;;;;;;5055658;28;20181;-43
2022/06/11 03:58:54;;;;;;;6.57;1.97;;;;;;;;;;5049531;28;20476;-43
2022/06/11 04:01:23;;;;;;;4.20;1.87;;;;;;;;;;5053848;28;20289;-44
2022/06/11 04:03:51;;;;;;;2.60;1.77;;;;;;;;;;5052562;28;20686;-44
2022/06/11 04:06:20;;;;;;;3.60;1.93;;;;;;;;;;5049916;28;20177;-44
2022/06/11 04:08:46;;;;;;;6.93;2.03;;;;;;;;;;5057943;28;20494;-42
2022/06/11 04:11:13;;;;;;;8.37;2.30;;;;;;;;;;5051338;28;20357;-43
2022/06/11 04:13:40;;;;;;;9.07;2.50;;;;;;;;;;5050414;28;20651;-43
2022/06/11 04:16:07;;;;;;;13.40;3.33;;;;;;;;;;5054111;28;20209;-45
2022/06/11 04:18:38;;;;;;;15.73;3.87;;;;;;;;;;5057262;28;20167;-43
2022/06/11 04:21:08;;;;;;;4.00;2.10;;;;;;;;;;5051463;28;20497;-43
2022/06/11 04:23:34;;;;;;;8.37;2.20;;;;;;;;;;5053521;28;20606;-43
2022/06/11 04:26:02;;;;;;;5.07;1.70;;;;;;;;;;5049225;28;20705;-43
2022/06/11 04:28:29;;;;;;;9.57;2.50;;;;;;;;;;5050180;28;20240;-43
2022/06/11 04:30:56;;;;;;;3.67;1.70;;;;;;;;;;5053940;28;20207;-43
2022/06/11 04:33:22;;;;;;;4.23;1.80;;;;;;;;;;5055883;28;20277;-43
2022/06/11 04:35:48;;;;;;;5.43;1.67;;;;;;;;;;5051423;28;20190;-43
2022/06/11 04:38:15;;;;;;;7.30;2.43;;;;;;;;;;5052949;28;20710;-42
2022/06/11 04:40:41;;;;;;;3.40;1.50;;;;;;;;;;5054501;28;20181;-43
2022/06/11 04:43:07;;;;;;;2.53;1.37;;;;;;;;;;5050004;28;20996;-43
2022/06/11 04:45:33;;;;;;;4.27;1.80;;;;;;;;;;5055489;28;20844;-43
2022/06/11 04:47:59;;;;;;;2.50;1.50;;;;;;;;;;5055121;28;20179;-43
2022/06/11 04:50:25;;;;;;;5.00;1.90;;;;;;;;;;5055593;28;20656;-42
2022/06/11 04:52:51;;;;;;;3.80;1.60;;;;;;;;;;5048303;28;20496;-43
2022/06/11 04:55:18;;;;;;;4.73;1.50;;;;;;;;;;5056589;28;20181;-43
2022/06/11 04:57:44;;;;;;;2.13;1.47;;;;;;;;;;5052386;28;20982;-43
2022/06/11 05:00:14;;;;;;;4.63;1.60;;;;;;;;;;5053817;28;20579;-43
2022/06/11 05:02:40;;;;;;;3.77;1.73;;;;;;;;;;5048947;28;20799;-43
2022/06/11 05:05:06;;;;;;;4.43;1.93;;;;;;;;;;5053738;28;20172;-43
2022/06/11 05:07:33;;;;;;;8.27;3.50;;;;;;;;;;5053909;28;20174;-42
2022/06/11 05:09:59;;;;;;;9.27;4.10;;;;;;;;;;5054788;28;20206;-44
2022/06/11 05:12:25;;;;;;;9.10;3.90;;;;;;;;;;5054406;28;20185;-43
2022/06/11 05:14:51;;;;;;;11.33;4.60;;;;;;;;;;5056813;28;20178;-43
2022/06/11 05:17:17;;;;;;;13.10;4.67;;;;;;;;;;5052480;28;20744;-43
2022/06/11 05:19:43;;;;;;;24.03;4.60;;;;;;;;;;5053539;28;20547;-43
2022/06/11 05:22:09;;;;;;;11.13;4.33;;;;;;;;;;5050485;28;20201;-44
2022/06/11 05:24:36;;;;;;;9.50;3.77;;;;;;;;;;5053371;28;20707;-44
2022/06/11 05:27:06;;;;;;;9.47;3.80;;;;;;;;;;5054000;28;20197;-44
2022/06/11 05:29:37;;;;;;;5.27;2.80;;;;;;;;;;5051618;28;20411;-44
2022/06/11 05:32:03;;;;;;;6.00;2.90;;;;;;;;;;5051921;28;20204;-43
2022/06/11 05:34:30;;;;;;;7.80;2.70;;;;;;;;;;5052362;28;20488;-44
2022/06/11 05:36:57;;;;;;;6.93;2.70;;;;;;;;;;5054479;28;20430;-44
2022/06/11 05:39:24;;;;;;;4.70;2.37;;;;;;;;;;5058242;28;20589;-44
2022/06/11 05:41:50;;;;;;;5.73;2.60;;;;;;;;;;5051766;28;20731;-44
2022/06/11 05:44:17;;;;;;;6.43;2.43;;;;;;;;;;5049613;28;20175;-44
2022/06/11 05:46:43;;;;;;;5.13;2.40;;;;;;;;;;5043642;28;20189;-44
2022/06/11 05:49:14;;;;;;;8.60;2.50;;;;;;;;;;5048024;28;20519;-44
2022/06/11 05:51:42;;;;;;;4.97;2.03;;;;;;;;;;5040079;28;20229;-44
2022/06/11 05:54:11;;;;;;;6.20;2.50;;;;;;;;;;5046081;28;20170;-44
2022/06/11 05:56:37;;;;;;;9.23;3.20;;;;;;;;;;5045279;28;20287;-44
2022/06/11 05:59:06;;;;;;;3.57;2.37;;;;;;;;;;5059666;27;20174;-44
2022/06/11 06:01:34;;;;;;;8.23;3.17;;;;;;;;;;5042363;28;20565;-42
2022/06/11 06:04:00;;;;;;;7.20;3.30;;;;;;;;;;5046795;28;20186;-44
2022/06/11 06:06:26;;;;;;;10.97;3.13;;;;;;;;;;5041087;28;20182;-44
2022/06/11 06:08:52;;;;;;;7.97;3.00;;;;;;;;;;5043736;28;20260;-44
2022/06/11 06:11:18;;;;;;;10.07;3.40;;;;;;;;;;5043772;28;20302;-44
2022/06/11 06:13:47;;;;;;;6.50;3.00;;;;;;;;;;5048472;28;20563;-44
2022/06/11 06:16:17;;;;;;;4.73;2.40;;;;;;;;;;5046315;28;20171;-42
2022/06/11 06:18:43;;;;;;;6.00;2.97;;;;;;;;;;5049689;28;20641;-43
2022/06/11 06:21:10;;;;;;;9.00;3.03;;;;;;;;;;5044711;28;20261;-43
2022/06/11 06:23:36;;;;;;;14.50;3.77;;;;;;;;;;5045508;28;20622;-43
2022/06/11 06:26:03;;;;;;;9.23;2.97;;;;;;;;;;5042247;28;20268;-43
2022/06/11 06:28:29;;;;;;;7.27;2.80;;;;;;;;;;5044069;28;20176;-41
2022/06/11 06:30:58;;;;;;;7.83;3.57;;;;;;;;;;5047112;28;20661;-42
2022/06/11 06:33:24;;;;;;;10.80;3.47;;;;;;;;;;5043842;28;20201;-43
2022/06/11 06:35:51;;;;;;;9.83;3.17;;;;;;;;;;5045693;28;20168;-43
2022/06/11 06:38:17;;;;;;;7.67;2.90;;;;;;;;;;5047792;28;20210;-42
2022/06/11 06:40:43;;;;;;;8.83;2.80;;;;;;;;;;5044868;28;20211;-43
2022/06/11 06:43:09;;;;;;;6.10;1.87;;;;;;;;;;5045664;28;20274;-44
2022/06/11 06:45:36;;;;;;;9.43;2.37;;;;;;;;;;5044663;28;20191;-43
2022/06/11 06:48:02;;;;;;;9.87;2.43;;;;;;;;;;5043935;28;20244;-43
2022/06/11 06:50:29;;;;;;;7.30;2.17;;;;;;;;;;5047716;28;20226;-43
2022/06/11 06:52:55;;;;;;;8.47;2.37;;;;;;;;;;5044633;28;20237;-44
2022/06/11 06:55:22;;;;;;;8.97;2.37;;;;;;;;;;5048934;28;21138;-43
2022/06/11 06:57:49;;;;;;;7.47;2.30;;;;;;;;;;5051661;28;20189;-44
2022/06/11 07:00:17;;;;;;;4.63;2.30;;;;;;;;;;5048808;28;20183;-43
2022/06/11 07:02:43;;;;;;;7.37;1.90;;;;;;;;;;5049202;28;20183;-44
2022/06/11 07:05:10;;;;;;;5.67;1.63;;;;;;;;;;5051284;28;20190;-44
2022/06/11 07:07:36;;;;;;;2.27;1.33;;;;;;;;;;5048165;28;20799;-42
2022/06/11 07:10:03;;;;;;;6.43;1.93;;;;;;;;;;5046888;28;20210;-44
2022/06/11 07:12:29;;;;;;;5.93;1.90;;;;;;;;;;5051359;28;20913;-44
2022/06/11 07:14:55;;;;;;;4.07;1.50;;;;;;;;;;5050239;28;21169;-44
2022/06/11 07:17:22;;;;;;;5.20;1.73;;;;;;;;;;5050450;28;20186;-44
2022/06/11 07:19:49;;;;;;;4.00;1.70;;;;;;;;;;5054154;28;20243;-44
2022/06/11 07:22:22;;;;;;;5.03;1.53;;;;;;;;;;5048510;28;20191;-44
2022/06/11 07:24:48;;;;;;;5.07;1.80;;;;;;;;;;5062384;28;20190;-43
2022/06/11 07:27:25;;;;;;;3.07;1.60;;;;;;;;;;5051257;28;20182;-43
2022/06/11 07:30:00;;;;;;;3.90;1.73;;;;;;;;;;5048484;28;20874;-43
2022/06/11 07:32:28;;;;;;;3.57;1.57;;;;;;;;;;5045494;28;20823;-43
2022/06/11 07:34:54;;;;;;;8.93;1.90;;;;;;;;;;5046584;28;20646;-43
2022/06/11 07:37:21;;;;;;;8.00;1.93;;;;;;;;;;5049779;28;20179;-43
2022/06/11 07:39:47;;;;;;;4.87;1.70;;;;;;;;;;5048633;28;20622;-44
2022/06/11 07:42:13;;;;;;;5.30;1.80;;;;;;;;;;5041367;28;20180;-42
2022/06/11 07:44:39;;;;;;;3.63;1.77;;;;;;;;;;5041967;28;20191;-43
2022/06/11 07:47:05;;;;;;;4.87;1.97;;;;;;;;;;5044844;28;20563;-43
2022/06/11 07:49:32;;;;;;;4.33;1.70;;;;;;;;;;5037206;28;20198;-43
2022/06/11 07:51:58;;;;;;;6.43;1.70;;;;;;;;;;5044063;28;20295;-43
2022/06/11 07:54:24;;;;;;;4.83;1.67;;;;;;;;;;5041663;28;20214;-43
2022/06/11 07:56:50;;;;;;;4.67;1.83;;;;;;;;;;5039472;28;20171;-43
2022/06/11 07:59:17;;;;;;;5.67;2.00;;;;;;;;;;5045448;28;20847;-44
2022/06/11 08:01:43;;;;;;;3.47;1.70;;;;;;;;;;5044321;28;20179;-45
2022/06/11 08:04:09;;;;;;;2.37;1.77;;;;;;;;;;5046074;28;20520;-45
2022/06/11 08:06:35;;;;;;;5.50;1.90;;;;;;;;;;5048141;28;20241;-43
2022/06/11 08:09:01;;;;;;;4.73;1.80;;;;;;;;;;5051039;28;21168;-43
2022/06/11 08:11:27;;;;;;;5.30;1.77;;;;;;;;;;5052534;28;20206;-43
2022/06/11 08:13:53;;;;;;;4.50;1.87;;;;;;;;;;5050697;28;20179;-42
2022/06/11 08:16:19;;;;;;;4.97;1.80;;;;;;;;;;5049214;28;20221;-43
2022/06/11 08:18:45;;;;;;;3.13;1.80;;;;;;;;;;5051380;28;20190;-43
2022/06/11 08:21:12;;;;;;;6.93;2.00;;;;;;;;;;5048988;28;20170;-43
2022/06/11 08:23:40;;;;;;;5.40;1.87;;;;;;;;;;5049142;28;20259;-41
2022/06/11 08:26:06;;;;;;;6.37;1.80;;;;;;;;;;5048204;28;20785;-43
2022/06/11 08:28:32;;;;;;;2.00;1.80;;;;;;;;;;5046655;28;20171;-44
2022/06/11 08:30:58;;;;;;;4.17;1.90;;;;;;;;;;5051764;28;20985;-42
2022/06/11 08:33:24;;;;;;;6.47;2.10;;;;;;;;;;5053906;28;20263;-43
2022/06/11 08:35:51;;;;;;;6.07;2.03;;;;;;;;;;5056312;28;20860;-43
2022/06/11 08:38:17;;;;;;;3.03;1.80;;;;;;;;;;5053007;28;21090;-44
2022/06/11 08:40:53;;;;;;;2.57;1.67;;;;;;;;;;5055953;28;20209;-44
2022/06/11 08:43:31;;;;;;;7.93;2.00;;;;;;;;;;5056220;28;20174;-44
2022/06/11 08:46:00;;;;;;;3.13;1.67;;;;;;;;;;5054532;28;21008;-42
2022/06/11 08:48:44;;;;;;;6.30;2.27;;;;;;;;;;5053673;28;20748;-44
2022/06/11 08:51:26;;;;;;;5.00;1.80;;;;;;;;;;5052748;28;20684;-45
2022/06/11 08:53:53;;;;;;;3.70;1.60;;;;;;;;;;5052359;28;20178;-45
2022/06/11 08:56:23;;;;;;;2.40;1.70;;;;;;;;;;5052274;28;20986;-44
2022/06/11 08:59:25;;;;;;;2.73;1.50;;;;;;;;;;5058319;28;20850;-43
2022/06/11 09:02:00;;;;;;;4.07;1.53;;;;;;;;;;5030764;28;20980;-44
2022/06/11 09:04:26;;;;;;;2.23;1.47;;;;;;;;;;5047801;28;20182;-44
2022/06/11 09:06:58;;;;;;;4.07;1.67;;;;;;;;;;5055655;28;20183;-44
2022/06/11 09:09:33;;;;;;;1.70;1.60;;;;;;;;;;5069738;27;20171;-44
2022/06/11 09:12:09;;;;;;;1.53;1.40;;;;;;;;;;5056897;28;20169;-44
2022/06/11 09:14:47;;;;;;;1.47;1.37;;;;;;;;;;5052952;28;20186;-44
2022/06/11 09:17:19;;;;;;;1.40;1.30;;;;;;;;;;5057952;28;20213;-41
2022/06/11 09:19:54;;;;;;;2.57;1.40;;;;;;;;;;5056876;28;20174;-43
2022/06/11 09:22:20;;;;;;;2.13;1.60;;;;;;;;;;5052666;28;20215;-42
2022/06/11 09:24:50;;;;;;;2.47;1.40;;;;;;;;;;5054699;28;20175;-44
2022/06/11 09:27:33;;;;;;;5.83;1.40;;;;;;;;;;5054602;28;20240;-44
2022/06/11 09:30:05;;;;;;;2.40;1.60;;;;;;;;;;5049601;28;20223;-44
2022/06/11 09:32:34;;;;;;;2.63;1.40;;;;;;;;;;5051447;28;20175;-44
2022/06/11 09:35:16;;;;;;;4.90;1.77;;;;;;;;;;5051542;28;20283;-44
2022/06/11 09:37:48;;;;;;;2.20;1.33;;;;;;;;;;5057716;28;20178;-44
2022/06/11 09:40:17;;;;;;;1.67;1.50;;;;;;;;;;5052222;28;20180;-44
2022/06/11 09:42:55;;;;;;;1.53;1.40;;;;;;;;;;5050046;28;20180;-44
2022/06/11 09:45:34;;;;;;;2.67;1.50;;;;;;;;;;5051163;28;20293;-43
2022/06/11 09:48:02;;;;;;;2.60;1.23;;;;;;;;;;5052198;28;20168;-44
2022/06/11 09:50:29;;;;;;;2.10;1.60;;;;;;;;;;5053810;28;21024;-44
2022/06/11 09:52:58;;;;;;;4.03;1.60;;;;;;;;;;5054063;28;20178;-44
2022/06/11 09:55:36;;;;;;;2.30;1.40;;;;;;;;;;5046481;28;20592;-44
2022/06/11 09:58:18;;;;;;;4.83;1.60;;;;;;;;;;5045478;28;20167;-44
2022/06/11 10:00:46;;;;;;;4.70;1.47;;;;;;;;;;5048708;28;21266;-44
2022/06/11 10:05:55;;;;;;;2.37;1.80;;;;;;;;;;5049925;28;20289;-44
2022/06/11 10:08:21;;;;;;;4.50;1.50;;;;;;;;;;5041745;28;20905;-44
2022/06/11 10:10:48;;;;;;;2.63;1.30;;;;;;;;;;5046802;28;20201;-44
2022/06/11 10:13:34;;;;;;;3.93;1.50;;;;;;;;;;5048460;28;22728;-44
2022/06/11 10:16:06;;;;;;;2.53;1.53;;;;;;;;;;5051122;28;20224;-44
2022/06/11 10:18:34;;;;;;;1.77;1.30;;;;;;;;;;5048038;28;20274;-44
2022/06/11 10:21:05;;;;;;;2.77;1.50;;;;;;;;;;5052797;28;20185;-44
2022/06/11 10:23:31;;;;;;;2.93;1.67;;;;;;;;;;5049227;28;20326;-44
2022/06/11 10:26:00;;;;;;;1.77;1.20;;;;;;;;;;5049911;28;20989;-44
2022/06/11 10:28:26;;;;;;;2.67;1.20;;;;;;;;;;5048201;28;20244;-44
2022/06/11 10:30:55;;;;;;;2.53;1.20;;;;;;;;;;5047733;28;21101;-44
2022/06/11 10:33:40;;;;;;;1.93;1.47;;;;;;;;;;5047798;28;20192;-43
2022/06/11 10:36:09;;;;;;;1.57;1.47;;;;;;;;;;5045310;28;20367;-44
2022/06/11 10:38:40;;;;;;;4.30;1.30;;;;;;;;;;5051192;28;20183;-43
2022/06/11 10:41:07;;;;;;;1.20;1.10;;;;;;;;;;5048814;28;20190;-44
2022/06/11 10:43:37;;;;;;;1.60;1.20;;;;;;;;;;5040550;28;20807;-43
2022/06/11 10:46:03;;;;;;;3.07;1.50;;;;;;;;;;5044834;28;20228;-43
2022/06/11 10:48:33;;;;;;;4.30;1.57;;;;;;;;;;5043136;28;20190;-44
2022/06/11 10:51:01;;;;;;;2.57;1.50;;;;;;;;;;5046282;28;20798;-44
2022/06/11 10:53:27;;;;;;;1.63;1.40;;;;;;;;;;5039342;28;20201;-43
2022/06/11 10:56:13;;;;;;;1.97;1.20;;;;;;;;;;5047287;28;20183;-43
2022/06/11 10:58:54;;;;;;;3.20;1.50;;;;;;;;;;5051965;28;20170;-44
2022/06/11 11:01:26;;;;;;;2.17;1.20;;;;;;;;;;5044868;28;20678;-44
2022/06/11 11:03:57;;;;;;;1.47;1.37;;;;;;;;;;5044167;28;20224;-44
2022/06/11 11:06:33;;;;;;;1.80;1.37;;;;;;;;;;5048815;28;20188;-44
2022/06/11 11:09:10;;;;;;;1.90;1.10;;;;;;;;;;5047345;28;20181;-44
2022/06/11 11:11:40;;;;;;;1.40;1.30;;;;;;;;;;5046255;28;20210;-43
2022/06/11 11:14:16;;;;;;;1.70;1.40;;;;;;;;;;5050033;28;20734;-44
2022/06/11 11:16:47;;;;;;;1.67;1.57;;;;;;;;;;5049761;28;20519;-44
2022/06/11 11:19:26;;;;;;;2.73;1.20;;;;;;;;;;5051547;28;20182;-44
2022/06/11 11:21:57;;;;;;;1.50;1.40;;;;;;;;;;5042215;28;20618;-44
2022/06/11 11:24:32;;;;;;;1.97;1.40;;;;;;;;;;5045800;28;20908;-44
2022/06/11 11:27:17;;;;;;;1.80;1.23;;;;;;;;;;5047375;28;20407;-44
2022/06/11 11:30:15;;;;;;;1.23;1.13;;;;;;;;;;5048942;28;20198;-44
2022/06/11 11:32:42;;;;;;;2.27;1.47;;;;;;;;;;5011828;28;20186;-45
2022/06/11 11:35:18;;;;;;;2.77;1.50;;;;;;;;;;5046396;28;20580;-44
2022/06/11 11:37:44;;;;;;;2.57;1.37;;;;;;;;;;5044581;28;20910;-43
2022/06/11 11:40:25;;;;;;;1.67;1.30;;;;;;;;;;5044061;28;20741;-44
2022/06/11 11:42:55;;;;;;;1.10;1.00;;;;;;;;;;5043772;28;20187;-44
2022/06/11 11:45:23;;;;;;;1.73;1.20;;;;;;;;;;5049215;28;20183;-44
2022/06/11 11:47:50;;;;;;;2.93;1.20;;;;;;;;;;5050484;28;20774;-44
2022/06/11 11:50:21;;;;;;;2.17;1.47;;;;;;;;;;5044538;28;20439;-44
2022/06/11 11:52:52;;;;;;;1.50;1.40;;;;;;;;;;5051194;28;20271;-44
2022/06/11 11:55:38;;;;;;;2.23;1.10;;;;;;;;;;5045706;28;21018;-44
2022/06/11 11:58:15;;;;;;;1.47;1.27;;;;;;;;;;5045617;28;21355;-45
2022/06/11 12:00:53;;;;;;;3.20;1.20;;;;;;;;;;5053324;28;20178;-45
2022/06/11 12:03:29;;;;;;;2.50;1.27;;;;;;;;;;5048766;28;20194;-44
2022/06/11 12:05:57;;;;;;;1.47;1.17;;;;;;;;;;5050848;28;20429;-44
2022/06/11 12:08:26;;;;;;;2.27;1.30;;;;;;;;;;5055425;28;20193;-44
2022/06/11 12:10:57;;;;;;;2.13;1.40;;;;;;;;;;5051186;28;20203;-44
2022/06/11 12:13:25;;;;;;;2.50;1.47;;;;;;;;;;5046767;28;20175;-44
2022/06/11 12:15:59;;;;;;;1.47;1.30;;;;;;;;;;5049879;28;20194;-45
2022/06/11 12:18:32;;;;;;;1.47;1.23;;;;;;;;;;5051910;28;20718;-44
2022/06/11 12:21:01;;;;;;;2.43;1.43;;;;;;;;;;5051307;28;20183;-44
2022/06/11 12:23:36;;;;;;;1.37;1.13;;;;;;;;;;5051464;28;21062;-44
2022/06/11 12:26:05;;;;;;;2.03;1.20;;;;;;;;;;5051641;28;20292;-44
2022/06/11 12:28:37;;;;;;;2.57;1.27;;;;;;;;;;5049765;28;20172;-44
2022/06/11 12:31:03;;;;;;;1.97;1.40;;;;;;;;;;5054387;28;20194;-45
2022/06/11 12:33:29;;;;;;;2.70;1.13;;;;;;;;;;5047921;28;20175;-44
2022/06/11 12:36:01;;;;;;;1.40;1.20;;;;;;;;;;5043941;28;20172;-44
2022/06/11 12:38:36;;;;;;;1.90;1.10;;;;;;;;;;5047591;28;20202;-45
2022/06/11 12:41:16;;;;;;;3.17;1.20;;;;;;;;;;5048054;28;21105;-44
2022/06/11 12:44:05;;;;;;;2.60;1.13;;;;;;;;;;5047298;28;20183;-44
2022/06/11 12:46:43;;;;;;;1.80;1.60;;;;;;;;;;5036975;28;20188;-44
2022/06/11 12:49:28;;;;;;;2.77;1.23;;;;;;;;;;5046150;28;20192;-44
2022/06/11 12:52:06;;;;;;;2.00;1.10;;;;;;;;;;5040019;28;20991;-44
2022/06/11 12:54:38;;;;;;;1.23;1.00;;;;;;;;;;5045549;28;21231;-44
2022/06/11 12:57:23;;;;;;;2.90;0.97;;;;;;;;;;5045480;28;20172;-44
2022/06/11 13:00:07;;;;;;;2.77;1.00;;;;;;;;;;5046896;28;20197;-44
2022/06/11 13:02:42;;;;;;;1.40;1.07;;;;;;;;;;5042594;28;20185;-45
2022/06/11 13:05:17;;;;;;;3.37;1.17;;;;;;;;;;5048916;28;20285;-44
2022/06/11 13:07:46;;;;;;;1.83;1.00;;;;;;;;;;5046432;28;20180;-44
2022/06/11 13:10:12;;;;;;;1.47;1.10;;;;;;;;;;5047267;28;20218;-44
2022/06/11 13:12:56;;;;;;;1.63;1.10;;;;;;;;;;5044577;28;20516;-44
2022/06/11 13:15:26;;;;;;;1.77;1.20;;;;;;;;;;5045652;28;20225;-44
2022/06/11 13:17:57;;;;;;;1.10;1.00;;;;;;;;;;5042274;28;20179;-44
2022/06/11 13:20:29;;;;;;;1.10;1.00;;;;;;;;;;5042290;28;20612;-45
2022/06/11 13:23:21;;;;;;;1.77;1.00;;;;;;;;;;5041311;28;20306;-44
2022/06/11 13:26:00;;;;;;;1.27;1.03;;;;;;;;;;5049629;28;20931;-44
2022/06/11 13:28:45;;;;;;;3.27;1.30;;;;;;;;;;5049691;28;20195;-44
2022/06/11 13:31:19;;;;;;;1.10;1.00;;;;;;;;;;5047107;28;20210;-45
2022/06/11 13:33:46;;;;;;;2.70;1.23;;;;;;;;;;5052062;28;20180;-44
2022/06/11 13:36:12;;;;;;;2.57;1.20;;;;;;;;;;5050519;28;20181;-44
2022/06/11 13:39:05;;;;;;;1.90;1.10;;;;;;;;;;5042707;28;20201;-43
2022/06/11 13:41:50;;;;;;;1.00;0.90;;;;;;;;;;5041415;28;20183;-45
2022/06/11 13:44:22;;;;;;;1.30;1.20;;;;;;;;;;5047117;28;20182;-43
2022/06/11 13:46:48;;;;;;;2.27;1.07;;;;;;;;;;5043912;28;20376;-44
2022/06/11 13:49:24;;;;;;;1.57;1.00;;;;;;;;;;5041496;28;20220;-44
2022/06/11 13:51:56;;;;;;;1.67;1.30;;;;;;;;;;5040800;28;20199;-44
2022/06/11 13:57:42;;;;;;;1.47;1.30;;;;;;;;;;5040492;28;20784;-44
2022/06/11 14:00:17;;;;;;;4.67;1.40;;;;;;;;;;5042840;28;20182;-43
2022/06/11 14:02:46;;;;;;;2.63;1.07;;;;;;;;;;5042681;28;20214;-43
2022/06/11 14:05:34;;;;;;;1.53;1.10;;;;;;;;;;5048375;28;21088;-43
2022/06/11 14:08:00;;;;;;;1.63;1.00;;;;;;;;;;5046320;28;20984;-43
2022/06/11 14:11:02;;;;;;;1.77;1.20;;;;;;;;;;5045144;28;20277;-44
2022/06/11 14:14:04;;;;;;;2.30;1.20;;;;;;;;;;5006497;28;20636;-43
2022/06/11 14:16:33;;;;;;;1.70;1.17;;;;;;;;;;4986878;28;20750;-43
2022/06/11 14:19:00;;;;;;;1.57;1.00;;;;;;;;;;5035031;28;20183;-43
2022/06/11 14:21:38;;;;;;;2.97;1.10;;;;;;;;;;5046355;28;20183;-43
2022/06/11 14:24:05;;;;;;;2.97;1.20;;;;;;;;;;5049229;28;20171;-43
2022/06/11 14:26:48;;;;;;;1.00;1.00;;;;;;;;;;5047835;28;20948;-44
2022/06/11 14:29:26;;;;;;;2.90;1.47;;;;;;;;;;5049276;28;20176;-42
2022/06/11 14:31:54;;;;;;;3.10;1.20;;;;;;;;;;5050237;28;20197;-44
2022/06/11 14:34:22;;;;;;;1.20;1.10;;;;;;;;;;5047221;28;20179;-44
2022/06/11 14:37:03;;;;;;;1.70;1.10;;;;;;;;;;5048292;28;20608;-44
2022/06/11 14:39:33;;;;;;;2.77;1.03;;;;;;;;;;5047955;28;20167;-43
2022/06/11 14:42:20;;;;;;;1.87;1.27;;;;;;;;;;5049811;28;20183;-44
2022/06/11 14:45:10;;;;;;;1.63;1.17;;;;;;;;;;5058042;28;20182;-43
2022/06/11 14:47:50;;;;;;;3.33;1.30;;;;;;;;;;5019559;28;20703;-43
2022/06/11 14:50:46;;;;;;;3.63;1.27;;;;;;;;;;5048927;28;20511;-43
2022/06/11 14:53:19;;;;;;;3.60;0.90;;;;;;;;;;5040119;28;20845;-43
2022/06/11 14:55:46;;;;;;;1.13;0.90;;;;;;;;;;5053623;28;20182;-43
2022/06/11 14:58:25;;;;;;;2.50;1.10;;;;;;;;;;5049366;28;20563;-43
2022/06/11 15:00:58;;;;;;;1.63;0.87;;;;;;;;;;5047191;28;20185;-44
2022/06/11 15:03:43;;;;;;;1.73;1.10;;;;;;;;;;5047156;28;20191;-43
2022/06/11 15:06:25;;;;;;;2.33;1.10;;;;;;;;;;5043113;28;20274;-43
2022/06/11 15:08:54;;;;;;;1.00;0.93;;;;;;;;;;5037984;28;20581;-43
2022/06/11 15:11:23;;;;;;;2.73;1.17;;;;;;;;;;5041765;28;20207;-43